createdAt,value
2017-11-15T00:00:22.717Z,9.98
2017-11-15T00:01:22.722Z,10
2017-11-15T00:02:22.669Z,9.92
2017-11-15T00:03:22.996Z,9.9
2017-11-15T00:04:22.898Z,10.05
2017-11-15T00:05:22.978Z,10.07
2017-11-15T00:06:22.876Z,10.19
2017-11-15T00:07:22.868Z,10.22
2017-11-15T00:08:22.798Z,10.3
2017-11-15T00:09:22.463Z,10.22
2017-11-15T00:10:22.503Z,10.3
2017-11-15T00:11:22.598Z,10.25
2017-11-15T00:12:22.187Z,10.28
2017-11-15T00:13:22.505Z,10.3
2017-11-15T00:14:22.678Z,10.37
2017-11-15T00:15:22.183Z,10.33
2017-11-15T00:16:22.365Z,10.38
2017-11-15T00:17:22.606Z,10.41
2017-11-15T00:18:22.358Z,10.38
2017-11-15T00:19:22.356Z,10.4
2017-11-15T00:20:22.371Z,10.56
2017-11-15T00:21:22.417Z,10.56
2017-11-15T00:22:22.327Z,10.53
2017-11-15T00:23:22.600Z,10.38
2017-11-15T00:24:22.187Z,10.38
2017-11-15T00:25:22.203Z,10.38
2017-11-15T00:26:22.393Z,10.36
2017-11-15T00:27:22.141Z,10.29
2017-11-15T00:28:22.356Z,10.29
2017-11-15T00:29:22.089Z,10.29
2017-11-15T00:30:22.154Z,10.28
2017-11-15T00:31:22.298Z,10.3
2017-11-15T00:32:22.035Z,10.34
2017-11-15T00:33:22.253Z,10.37
2017-11-15T00:34:21.958Z,10.46
2017-11-15T00:35:22.196Z,10.52
2017-11-15T00:36:21.921Z,10.44
2017-11-15T00:37:21.635Z,10.4
2017-11-15T00:38:21.632Z,10.3
2017-11-15T00:39:22.106Z,10.37
2017-11-15T00:40:21.836Z,10.37
2017-11-15T00:41:21.845Z,10.36
2017-11-15T00:42:21.798Z,10.53
2017-11-15T00:43:22.028Z,10.46
2017-11-15T00:44:22.010Z,10.47
2017-11-15T00:45:21.976Z,10.4
2017-11-15T00:46:21.937Z,10.41
2017-11-15T00:47:21.680Z,10.46
2017-11-15T00:48:21.919Z,10.47
2017-11-15T00:49:21.611Z,10.53
2017-11-15T00:50:21.875Z,10.48
2017-11-15T00:51:21.584Z,10.38
2017-11-15T00:52:21.576Z,10.34
2017-11-15T00:53:21.555Z,10.44
2017-11-15T00:54:21.777Z,10.4
2017-11-15T00:55:21.756Z,10.44
2017-11-15T00:56:21.739Z,10.48
2017-11-15T00:57:21.707Z,10.46
2017-11-15T00:58:21.684Z,10.44
2017-11-15T00:59:21.674Z,10.43
2017-11-15T01:00:21.388Z,10.41
2017-11-15T01:01:21.371Z,10.48
2017-11-15T01:02:21.620Z,10.48
2017-11-15T01:03:21.577Z,10.4
2017-11-15T01:04:21.537Z,10.55
2017-11-15T01:05:21.589Z,10.38
2017-11-15T01:06:21.520Z,10.37
2017-11-15T01:07:21.506Z,10.26
2017-11-15T01:08:21.217Z,10.25
2017-11-15T01:09:21.449Z,10.21
2017-11-15T01:10:21.439Z,10.22
2017-11-15T01:11:21.398Z,10.36
2017-11-15T01:12:21.384Z,10.28
2017-11-15T01:13:21.107Z,10.29
2017-11-15T01:14:21.068Z,10.21
2017-11-15T01:15:21.326Z,10.15
2017-11-15T01:16:21.036Z,10.16
2017-11-15T01:17:21.268Z,10.05
2017-11-15T01:18:21.228Z,10.1
2017-11-15T01:19:20.954Z,10.13
2017-11-15T01:20:20.933Z,10.15
2017-11-15T01:21:20.918Z,10.18
2017-11-15T01:22:20.895Z,10.15
2017-11-15T01:23:20.889Z,10.15
2017-11-15T01:24:20.864Z,10.13
2017-11-15T01:25:21.087Z,10.08
2017-11-15T01:26:21.077Z,10.11
2017-11-15T01:27:20.775Z,10.07
2017-11-15T01:28:20.762Z,10.07
2017-11-15T01:29:21.012Z,10.13
2017-11-15T01:30:20.706Z,10.21
2017-11-15T01:31:20.963Z,10.19
2017-11-15T01:32:20.418Z,10.11
2017-11-15T01:33:20.908Z,10.19
2017-11-15T01:34:20.635Z,10.19
2017-11-15T01:35:20.606Z,10.16
2017-11-15T01:36:20.323Z,10.16
2017-11-15T01:37:20.547Z,10.22
2017-11-15T01:38:20.556Z,10.19
2017-11-15T01:39:20.510Z,10.15
2017-11-15T01:40:20.487Z,10.21
2017-11-15T01:41:20.466Z,10.26
2017-11-15T01:42:20.715Z,10.3
2017-11-15T01:43:20.427Z,10.29
2017-11-15T01:44:20.398Z,10.26
2017-11-15T01:45:20.715Z,10.19
2017-11-15T01:46:20.367Z,10.16
2017-11-15T01:47:20.629Z,10.04
2017-11-15T01:48:20.305Z,10.05
2017-11-15T01:49:20.298Z,9.98
2017-11-15T01:50:20.257Z,10.1
2017-11-15T01:51:20.565Z,10.04
2017-11-15T01:52:20.490Z,10.08
2017-11-15T01:53:19.949Z,10
2017-11-15T01:54:20.170Z,10.01
2017-11-15T01:55:20.446Z,9.9
2017-11-15T01:56:19.871Z,9.85
2017-11-15T01:57:19.849Z,9.85
2017-11-15T01:58:19.836Z,9.92
2017-11-15T01:59:20.478Z,10
2017-11-15T02:00:20.040Z,10.03
2017-11-15T02:01:20.322Z,9.87
2017-11-15T02:02:19.987Z,9.93
2017-11-15T02:03:20.051Z,9.95
2017-11-15T02:04:20.203Z,9.86
2017-11-15T02:05:20.207Z,9.93
2017-11-15T02:06:19.647Z,9.97
2017-11-15T02:07:20.240Z,10
2017-11-15T02:08:20.118Z,9.92
2017-11-15T02:09:19.596Z,9.93
2017-11-15T02:10:20.197Z,10.03
2017-11-15T02:11:20.068Z,10.05
2017-11-15T02:12:19.766Z,10.1
2017-11-15T02:13:20.015Z,10.01
2017-11-15T02:14:20.006Z,10.04
2017-11-15T02:15:19.971Z,10.15
2017-11-15T02:16:19.946Z,10
2017-11-15T02:17:19.655Z,10.1
2017-11-15T02:18:19.653Z,10.08
2017-11-15T02:19:19.620Z,10.01
2017-11-15T02:20:19.337Z,10.16
2017-11-15T02:21:19.570Z,10.11
2017-11-15T02:22:19.549Z,10.07
2017-11-15T02:23:19.802Z,10.11
2017-11-15T02:24:19.786Z,10.1
2017-11-15T02:25:19.489Z,10.18
2017-11-15T02:26:19.468Z,10.15
2017-11-15T02:27:19.688Z,10.16
2017-11-15T02:28:19.415Z,10.13
2017-11-15T02:29:19.642Z,10.11
2017-11-15T02:30:19.638Z,10.11
2017-11-15T02:31:19.366Z,10.04
2017-11-15T02:32:19.332Z,10.11
2017-11-15T02:33:19.564Z,10.13
2017-11-15T02:34:19.267Z,10.11
2017-11-15T02:35:18.996Z,10.18
2017-11-15T02:36:19.247Z,10.18
2017-11-15T02:37:18.951Z,10.21
2017-11-15T02:38:19.201Z,10.16
2017-11-15T02:39:19.157Z,10.23
2017-11-15T02:40:19.161Z,10.19
2017-11-15T02:41:19.126Z,10.28
2017-11-15T02:42:19.347Z,10.15
2017-11-15T02:43:19.080Z,10.15
2017-11-15T02:44:19.187Z,10.1
2017-11-15T02:45:19.298Z,10.05
2017-11-15T02:46:19.028Z,10.18
2017-11-15T02:47:19.259Z,10.13
2017-11-15T02:48:19.015Z,10.16
2017-11-15T02:49:18.938Z,10.22
2017-11-15T02:50:19.048Z,10.13
2017-11-15T02:51:19.185Z,10.16
2017-11-15T02:52:18.918Z,10.05
2017-11-15T02:53:18.861Z,10.07
2017-11-15T02:54:19.229Z,10.16
2017-11-15T02:55:18.819Z,10.13
2017-11-15T02:56:19.068Z,10.19
2017-11-15T02:57:19.034Z,10.15
2017-11-15T02:58:18.527Z,10.08
2017-11-15T02:59:18.776Z,9.89
2017-11-15T03:00:18.959Z,9.83
2017-11-15T03:01:18.703Z,9.87
2017-11-15T03:02:18.668Z,9.89
2017-11-15T03:03:18.900Z,9.97
2017-11-15T03:04:18.877Z,10.04
2017-11-15T03:05:18.588Z,10.13
2017-11-15T03:06:18.575Z,10.11
2017-11-15T03:07:18.799Z,10.16
2017-11-15T03:08:18.526Z,10.07
2017-11-15T03:09:18.229Z,10.15
2017-11-15T03:10:18.537Z,10.1
2017-11-15T03:11:18.717Z,10.11
2017-11-15T03:12:18.495Z,10.16
2017-11-15T03:13:18.409Z,10.16
2017-11-15T03:14:18.658Z,10.07
2017-11-15T03:15:18.358Z,10.1
2017-11-15T03:16:18.414Z,10.05
2017-11-15T03:17:18.587Z,10.03
2017-11-15T03:18:18.296Z,9.95
2017-11-15T03:19:18.291Z,10.01
2017-11-15T03:20:18.520Z,9.95
2017-11-15T03:21:19.668Z,9.9
2017-11-15T03:22:18.494Z,9.87
2017-11-15T03:23:18.489Z,9.83
2017-11-15T03:24:18.208Z,9.79
2017-11-15T03:25:17.878Z,9.79
2017-11-15T03:26:18.397Z,9.86
2017-11-15T03:27:18.388Z,9.79
2017-11-15T03:28:18.078Z,9.8
2017-11-15T03:29:18.049Z,9.9
2017-11-15T03:30:17.768Z,9.9
2017-11-15T03:31:18.022Z,9.95
2017-11-15T03:32:17.736Z,9.83
2017-11-15T03:33:18.220Z,9.8
2017-11-15T03:34:18.200Z,9.71
2017-11-15T03:35:18.169Z,9.67
2017-11-15T03:36:17.893Z,9.62
2017-11-15T03:37:18.129Z,9.68
2017-11-15T03:38:17.849Z,9.72
2017-11-15T03:39:18.086Z,9.79
2017-11-15T03:40:18.063Z,9.85
2017-11-15T03:41:18.098Z,9.78
2017-11-15T03:42:17.753Z,9.92
2017-11-15T03:43:18.006Z,9.98
2017-11-15T03:44:17.720Z,10.01
2017-11-15T03:45:17.946Z,10.13
2017-11-15T03:46:17.656Z,10.15
2017-11-15T03:47:17.897Z,10.16
2017-11-15T03:48:17.878Z,10.13
2017-11-15T03:49:17.595Z,10.04
2017-11-15T03:50:17.827Z,10.01
2017-11-15T03:51:17.547Z,9.86
2017-11-15T03:52:17.528Z,9.9
2017-11-15T03:53:17.768Z,9.97
2017-11-15T03:54:17.760Z,9.93
2017-11-15T03:55:17.449Z,9.85
2017-11-15T03:56:17.437Z,9.85
2017-11-15T03:57:17.407Z,9.82
2017-11-15T03:58:17.383Z,9.87
2017-11-15T03:59:17.110Z,9.85
2017-11-15T04:00:17.616Z,9.78
2017-11-15T04:01:17.576Z,9.86
2017-11-15T04:02:17.569Z,9.86
2017-11-15T04:03:17.530Z,9.82
2017-11-15T04:04:17.258Z,9.85
2017-11-15T04:05:17.494Z,9.93
2017-11-15T04:06:17.457Z,9.74
2017-11-15T04:07:17.178Z,9.72
2017-11-15T04:08:17.427Z,9.68
2017-11-15T04:09:17.417Z,9.67
2017-11-15T04:10:16.859Z,9.61
2017-11-15T04:11:17.088Z,9.61
2017-11-15T04:12:16.808Z,9.65
2017-11-15T04:13:16.789Z,9.71
2017-11-15T04:14:17.299Z,9.75
2017-11-15T04:15:17.280Z,9.85
2017-11-15T04:16:16.992Z,9.8
2017-11-15T04:17:17.219Z,9.74
2017-11-15T04:18:16.937Z,9.8
2017-11-15T04:19:16.659Z,9.79
2017-11-15T04:20:16.894Z,9.86
2017-11-15T04:21:17.139Z,9.87
2017-11-15T04:22:17.168Z,9.93
2017-11-15T04:23:16.848Z,9.87
2017-11-15T04:24:17.118Z,9.87
2017-11-15T04:25:16.792Z,9.83
2017-11-15T04:26:16.771Z,9.93
2017-11-15T04:27:17.030Z,9.92
2017-11-15T04:28:17.032Z,9.87
2017-11-15T04:29:16.733Z,9.85
2017-11-15T04:30:16.986Z,9.89
2017-11-15T04:31:16.657Z,9.9
2017-11-15T04:32:16.888Z,9.92
2017-11-15T04:33:16.724Z,9.9
2017-11-15T04:34:16.966Z,9.75
2017-11-15T04:35:16.878Z,9.75
2017-11-15T04:36:16.871Z,9.75
2017-11-15T04:37:16.517Z,9.85
2017-11-15T04:38:16.488Z,9.89
2017-11-15T04:39:16.741Z,9.8
2017-11-15T04:40:16.808Z,9.93
2017-11-15T04:41:16.470Z,9.95
2017-11-15T04:42:16.149Z,9.95
2017-11-15T04:43:16.639Z,9.93
2017-11-15T04:44:16.089Z,9.87
2017-11-15T04:45:16.590Z,10.03
2017-11-15T04:46:16.760Z,10.13
2017-11-15T04:47:16.546Z,10.13
2017-11-15T04:48:16.533Z,10.05
2017-11-15T04:49:16.508Z,10.03
2017-11-15T04:50:16.327Z,10.07
2017-11-15T04:51:16.458Z,10.08
2017-11-15T04:52:16.437Z,10.05
2017-11-15T04:53:16.166Z,10.03
2017-11-15T04:54:16.149Z,10.1
2017-11-15T04:55:16.368Z,9.9
2017-11-15T04:56:15.819Z,9.95
2017-11-15T04:57:16.337Z,10
2017-11-15T04:58:16.309Z,9.87
2017-11-15T04:59:16.257Z,9.95
2017-11-15T05:00:15.996Z,10.05
2017-11-15T05:01:16.273Z,10.03
2017-11-15T05:02:15.950Z,9.93
2017-11-15T05:03:16.178Z,9.93
2017-11-15T05:04:15.900Z,10.07
2017-11-15T05:05:16.168Z,10.15
2017-11-15T05:06:16.118Z,10.08
2017-11-15T05:07:15.825Z,10.15
2017-11-15T05:08:15.824Z,10.11
2017-11-15T05:09:16.071Z,10.15
2017-11-15T05:10:15.508Z,10.19
2017-11-15T05:11:16.008Z,10.16
2017-11-15T05:12:15.736Z,10.1
2017-11-15T05:13:15.717Z,9.95
2017-11-15T05:14:15.437Z,9.92
2017-11-15T05:15:15.651Z,9.79
2017-11-15T05:16:15.900Z,9.74
2017-11-15T05:17:15.608Z,9.75
2017-11-15T05:18:15.588Z,9.79
2017-11-15T05:19:15.558Z,9.85
2017-11-15T05:20:15.806Z,9.87
2017-11-15T05:21:15.793Z,9.83
2017-11-15T05:22:15.497Z,9.79
2017-11-15T05:23:15.218Z,9.75
2017-11-15T05:24:15.499Z,9.71
2017-11-15T05:25:15.430Z,9.75
2017-11-15T05:26:15.146Z,9.75
2017-11-15T05:27:15.661Z,9.7
2017-11-15T05:28:15.369Z,9.78
2017-11-15T05:29:15.634Z,9.83
2017-11-15T05:30:15.310Z,9.72
2017-11-15T05:31:15.557Z,9.7
2017-11-15T05:32:15.549Z,9.7
2017-11-15T05:33:15.256Z,9.79
2017-11-15T05:34:15.510Z,9.7
2017-11-15T05:35:15.009Z,9.64
2017-11-15T05:36:14.915Z,9.46
2017-11-15T05:37:15.258Z,9.52
2017-11-15T05:38:15.138Z,9.46
2017-11-15T05:39:15.187Z,9.46
2017-11-15T05:40:14.843Z,9.53
2017-11-15T05:41:15.329Z,9.56
2017-11-15T05:42:15.315Z,9.61
2017-11-15T05:43:14.770Z,9.53
2017-11-15T05:44:15.259Z,9.43
2017-11-15T05:45:15.018Z,9.58
2017-11-15T05:46:15.239Z,9.67
2017-11-15T05:47:15.036Z,9.53
2017-11-15T05:48:14.908Z,9.62
2017-11-15T05:49:15.007Z,9.6
2017-11-15T05:50:15.117Z,9.6
2017-11-15T05:51:15.095Z,9.6
2017-11-15T05:52:14.827Z,9.6
2017-11-15T05:53:14.829Z,9.62
2017-11-15T05:54:14.777Z,9.5
2017-11-15T05:55:15.002Z,9.54
2017-11-15T05:56:14.734Z,9.52
2017-11-15T05:57:14.787Z,9.5
2017-11-15T05:58:14.683Z,9.53
2017-11-15T05:59:14.916Z,9.56
2017-11-15T06:00:14.387Z,9.62
2017-11-15T06:01:14.379Z,9.58
2017-11-15T06:02:14.602Z,9.64
2017-11-15T06:03:14.570Z,9.62
2017-11-15T06:04:14.810Z,9.56
2017-11-15T06:05:14.510Z,9.58
2017-11-15T06:06:14.241Z,9.53
2017-11-15T06:07:14.475Z,9.52
2017-11-15T06:08:14.771Z,9.6
2017-11-15T06:09:14.746Z,9.58
2017-11-15T06:10:14.980Z,9.53
2017-11-15T06:11:14.534Z,9.53
2017-11-15T06:12:14.840Z,9.56
2017-11-15T06:13:14.495Z,9.64
2017-11-15T06:14:14.062Z,9.7
2017-11-15T06:15:14.689Z,9.65
2017-11-15T06:16:14.305Z,9.78
2017-11-15T06:17:14.773Z,9.71
2017-11-15T06:18:14.349Z,9.6
2017-11-15T06:19:14.367Z,9.6
2017-11-15T06:20:14.296Z,9.52
2017-11-15T06:21:14.580Z,9.52
2017-11-15T06:22:14.397Z,9.47
2017-11-15T06:23:13.883Z,9.53
2017-11-15T06:24:14.570Z,9.54
2017-11-15T06:25:14.232Z,9.67
2017-11-15T06:26:14.597Z,9.79
2017-11-15T06:27:14.946Z,9.78
2017-11-15T06:28:14.513Z,9.7
2017-11-15T06:29:14.278Z,9.8
2017-11-15T06:30:14.479Z,9.74
2017-11-15T06:31:14.354Z,9.71
2017-11-15T06:32:14.428Z,9.7
2017-11-15T06:33:14.509Z,9.72
2017-11-15T06:34:14.433Z,9.89
2017-11-15T06:35:14.321Z,9.97
2017-11-15T06:36:13.978Z,9.89
2017-11-15T06:37:14.252Z,10.07
2017-11-15T06:38:13.780Z,10.07
2017-11-15T06:39:13.759Z,10.08
2017-11-15T06:40:13.729Z,10.13
2017-11-15T06:41:13.997Z,10.13
2017-11-15T06:42:13.677Z,10.13
2017-11-15T06:43:13.421Z,10.18
2017-11-15T06:44:13.971Z,10.13
2017-11-15T06:45:13.879Z,10.15
2017-11-15T06:46:13.593Z,10.15
2017-11-15T06:47:13.601Z,10.15
2017-11-15T06:48:13.553Z,10.16
2017-11-15T06:49:13.791Z,10.11
2017-11-15T06:50:13.767Z,10.05
2017-11-15T06:51:13.750Z,10.11
2017-11-15T06:52:13.697Z,10.13
2017-11-15T06:53:13.449Z,10.01
2017-11-15T06:54:13.769Z,10.07
2017-11-15T06:55:13.682Z,10.15
2017-11-15T06:56:13.617Z,10.16
2017-11-15T06:57:13.614Z,10.18
2017-11-15T06:58:13.338Z,10.18
2017-11-15T06:59:13.562Z,10.07
2017-11-15T07:00:13.027Z,10.1
2017-11-15T07:01:13.265Z,10.1
2017-11-15T07:02:13.318Z,10.07
2017-11-15T07:03:13.214Z,9.98
2017-11-15T07:04:13.580Z,9.93
2017-11-15T07:05:13.454Z,9.93
2017-11-15T07:06:13.408Z,10.04
2017-11-15T07:07:12.858Z,10.13
2017-11-15T07:08:13.110Z,10.05
2017-11-15T07:09:13.346Z,10.04
2017-11-15T07:10:13.379Z,9.92
2017-11-15T07:11:13.028Z,9.85
2017-11-15T07:12:13.018Z,9.87
2017-11-15T07:13:12.988Z,9.92
2017-11-15T07:14:13.338Z,9.97
2017-11-15T07:15:12.956Z,9.9
2017-11-15T07:16:13.289Z,9.95
2017-11-15T07:17:13.179Z,9.83
2017-11-15T07:18:12.968Z,9.79
2017-11-15T07:19:13.098Z,9.71
2017-11-15T07:20:12.827Z,9.79
2017-11-15T07:21:13.070Z,9.9
2017-11-15T07:22:13.040Z,9.92
2017-11-15T07:23:13.007Z,9.86
2017-11-15T07:24:13.029Z,9.97
2017-11-15T07:25:12.990Z,9.89
2017-11-15T07:26:12.438Z,9.93
2017-11-15T07:27:12.668Z,10.1
2017-11-15T07:28:12.731Z,9.83
2017-11-15T07:29:12.881Z,9.72
2017-11-15T07:30:13.718Z,9.67
2017-11-15T07:31:12.632Z,9.6
2017-11-15T07:32:12.559Z,9.58
2017-11-15T07:33:12.537Z,9.5
2017-11-15T07:34:12.257Z,9.53
2017-11-15T07:35:12.230Z,9.53
2017-11-15T07:36:12.722Z,9.62
2017-11-15T07:37:12.747Z,9.68
2017-11-15T07:38:12.158Z,9.62
2017-11-15T07:39:12.671Z,9.62
2017-11-15T07:40:12.366Z,9.56
2017-11-15T07:41:12.621Z,9.54
2017-11-15T07:42:12.328Z,9.65
2017-11-15T07:43:12.588Z,9.61
2017-11-15T07:44:12.548Z,9.68
2017-11-15T07:45:12.010Z,9.71
2017-11-15T07:46:12.244Z,9.79
2017-11-15T07:47:12.230Z,9.82
2017-11-15T07:48:11.937Z,9.82
2017-11-15T07:49:12.177Z,9.82
2017-11-15T07:50:12.408Z,9.89
2017-11-15T07:51:12.153Z,9.8
2017-11-15T07:52:12.118Z,9.71
2017-11-15T07:53:12.355Z,9.75
2017-11-15T07:54:12.329Z,9.74
2017-11-15T07:55:12.297Z,9.71
2017-11-15T07:56:12.028Z,9.68
2017-11-15T07:57:12.249Z,9.72
2017-11-15T07:58:12.229Z,9.72
2017-11-15T07:59:11.688Z,9.78
2017-11-15T08:00:12.205Z,9.87
2017-11-15T08:01:11.901Z,9.89
2017-11-15T08:02:12.158Z,9.9
2017-11-15T08:03:11.860Z,9.95
2017-11-15T08:04:11.849Z,10.04
2017-11-15T08:05:12.078Z,10.04
2017-11-15T08:06:12.039Z,10.04
2017-11-15T08:07:12.018Z,9.86
2017-11-15T08:08:12.096Z,9.93
2017-11-15T08:09:11.986Z,9.95
2017-11-15T08:10:11.709Z,9.87
2017-11-15T08:11:11.938Z,9.93
2017-11-15T08:12:11.660Z,10.11
2017-11-15T08:13:11.903Z,10.07
2017-11-15T08:14:11.656Z,10.11
2017-11-15T08:15:11.856Z,10.05
2017-11-15T08:16:11.567Z,10.08
2017-11-15T08:17:11.799Z,10.15
2017-11-15T08:18:11.518Z,10.25
2017-11-15T08:19:11.488Z,10.33
2017-11-15T08:20:11.732Z,10.18
2017-11-15T08:21:11.448Z,10.13
2017-11-15T08:22:11.696Z,10.08
2017-11-15T08:23:11.698Z,10.18
2017-11-15T08:24:11.660Z,10.21
2017-11-15T08:25:11.618Z,10.15
2017-11-15T08:26:11.438Z,10.23
2017-11-15T08:27:11.330Z,10.33
2017-11-15T08:28:11.029Z,10.34
2017-11-15T08:29:11.580Z,10.29
2017-11-15T08:30:11.281Z,10.4
2017-11-15T08:31:11.234Z,10.3
2017-11-15T08:32:11.469Z,10.22
2017-11-15T08:33:11.481Z,10.34
2017-11-15T08:34:11.457Z,10.26
2017-11-15T08:35:11.137Z,10.25
2017-11-15T08:36:11.429Z,10.29
2017-11-15T08:37:11.094Z,10.43
2017-11-15T08:38:11.370Z,10.48
2017-11-15T08:39:11.300Z,10.44
2017-11-15T08:40:11.339Z,10.36
2017-11-15T08:41:10.749Z,10.41
2017-11-15T08:42:11.022Z,10.43
2017-11-15T08:43:11.225Z,10.56
2017-11-15T08:44:11.259Z,10.6
2017-11-15T08:45:11.177Z,10.43
2017-11-15T08:46:10.945Z,10.37
2017-11-15T08:47:10.607Z,10.43
2017-11-15T08:48:10.641Z,10.38
2017-11-15T08:49:10.849Z,10.36
2017-11-15T08:50:10.808Z,10.48
2017-11-15T08:51:11.146Z,10.55
2017-11-15T08:52:10.850Z,10.52
2017-11-15T08:53:11.055Z,10.55
2017-11-15T08:54:11.000Z,10.59
2017-11-15T08:55:10.954Z,10.56
2017-11-15T08:56:10.686Z,10.63
2017-11-15T08:57:10.648Z,10.71
2017-11-15T08:58:10.628Z,10.67
2017-11-15T08:59:10.870Z,10.74
2017-11-15T09:00:10.838Z,10.64
2017-11-15T09:01:10.840Z,10.56
2017-11-15T09:02:10.907Z,10.55
2017-11-15T09:03:10.521Z,10.56
2017-11-15T09:04:10.852Z,10.53
2017-11-15T09:05:10.217Z,10.53
2017-11-15T09:06:10.811Z,10.55
2017-11-15T09:07:10.702Z,10.71
2017-11-15T09:08:10.421Z,10.64
2017-11-15T09:09:10.388Z,10.6
2017-11-15T09:10:10.687Z,10.69
2017-11-15T09:11:10.346Z,10.77
2017-11-15T09:12:10.334Z,10.81
2017-11-15T09:13:10.568Z,10.84
2017-11-15T09:14:10.534Z,10.85
2017-11-15T09:15:10.248Z,10.98
2017-11-15T09:16:10.238Z,11.05
2017-11-15T09:17:10.198Z,10.93
2017-11-15T09:18:10.184Z,10.84
2017-11-15T09:19:09.905Z,10.85
2017-11-15T09:20:10.150Z,10.77
2017-11-15T09:21:10.121Z,10.63
2017-11-15T09:22:10.097Z,10.69
2017-11-15T09:23:10.074Z,10.6
2017-11-15T09:24:10.580Z,10.64
2017-11-15T09:25:10.317Z,10.78
2017-11-15T09:26:10.031Z,10.74
2017-11-15T09:27:09.997Z,10.82
2017-11-15T09:28:09.971Z,10.93
2017-11-15T09:29:09.949Z,10.92
2017-11-15T09:30:09.939Z,10.89
2017-11-15T09:31:10.158Z,10.85
2017-11-15T09:32:09.891Z,10.9
2017-11-15T09:33:09.858Z,10.85
2017-11-15T09:34:10.098Z,10.95
2017-11-15T09:35:10.075Z,10.98
2017-11-15T09:36:10.044Z,10.99
2017-11-15T09:37:09.545Z,11.11
2017-11-15T09:38:09.490Z,11.08
2017-11-15T09:39:10.044Z,11.08
2017-11-15T09:40:09.702Z,11.05
2017-11-15T09:41:09.687Z,11.03
2017-11-15T09:42:09.669Z,11.11
2017-11-15T09:43:09.747Z,10.98
2017-11-15T09:44:09.629Z,11.02
2017-11-15T09:45:09.999Z,11
2017-11-15T09:46:09.849Z,10.96
2017-11-15T09:47:09.307Z,10.96
2017-11-15T09:48:09.799Z,10.87
2017-11-15T09:49:09.648Z,10.87
2017-11-15T09:50:09.489Z,10.87
2017-11-15T09:51:09.734Z,10.9
2017-11-15T09:52:09.189Z,10.99
2017-11-15T09:53:09.715Z,10.99
2017-11-15T09:54:09.675Z,11.02
2017-11-15T09:55:09.412Z,10.96
2017-11-15T09:56:09.636Z,11.03
2017-11-15T09:57:09.628Z,11.13
2017-11-15T09:58:09.592Z,11.15
2017-11-15T09:59:09.583Z,11.18
2017-11-15T10:00:09.580Z,11.21
2017-11-15T10:01:09.259Z,11.15
2017-11-15T10:02:09.244Z,11.17
2017-11-15T10:03:09.570Z,11.08
2017-11-15T10:04:09.710Z,11.06
2017-11-15T10:05:09.178Z,11.15
2017-11-15T10:06:09.432Z,11.13
2017-11-15T10:07:09.141Z,11.17
2017-11-15T10:08:09.099Z,11.24
2017-11-15T10:09:09.348Z,11.17
2017-11-15T10:10:09.329Z,11.05
2017-11-15T10:11:09.300Z,11.03
2017-11-15T10:12:09.279Z,11.1
2017-11-15T10:13:09.259Z,11.05
2017-11-15T10:14:08.981Z,11.06
2017-11-15T10:15:09.009Z,11.18
2017-11-15T10:16:08.989Z,11.24
2017-11-15T10:17:08.689Z,11.23
2017-11-15T10:18:08.958Z,11.28
2017-11-15T10:19:09.130Z,11.35
2017-11-15T10:20:08.854Z,11.35
2017-11-15T10:21:09.079Z,11.32
2017-11-15T10:22:09.067Z,11.38
2017-11-15T10:23:09.051Z,11.46
2017-11-15T10:24:08.765Z,11.4
2017-11-15T10:25:08.998Z,11.4
2017-11-15T10:26:08.988Z,11.33
2017-11-15T10:27:08.949Z,11.36
2017-11-15T10:28:08.935Z,11.17
2017-11-15T10:29:08.983Z,11.17
2017-11-15T10:30:08.630Z,11.21
2017-11-15T10:31:08.877Z,11.36
2017-11-15T10:32:08.840Z,11.33
2017-11-15T10:33:08.587Z,11.31
2017-11-15T10:34:08.538Z,11.28
2017-11-15T10:35:08.791Z,11.24
2017-11-15T10:36:08.765Z,11.28
2017-11-15T10:37:08.521Z,11.32
2017-11-15T10:38:08.458Z,11.43
2017-11-15T10:39:08.440Z,11.47
2017-11-15T10:40:08.439Z,11.51
2017-11-15T10:41:08.648Z,11.57
2017-11-15T10:42:08.379Z,11.69
2017-11-15T10:43:08.607Z,11.83
2017-11-15T10:44:08.605Z,11.84
2017-11-15T10:45:08.591Z,11.98
2017-11-15T10:46:08.548Z,12.03
2017-11-15T10:47:08.536Z,12.21
2017-11-15T10:48:08.248Z,12.16
2017-11-15T10:49:08.488Z,12.24
2017-11-15T10:50:08.481Z,12.3
2017-11-15T10:51:08.439Z,12.37
2017-11-15T10:52:08.160Z,12.34
2017-11-15T10:53:08.141Z,12.23
2017-11-15T10:54:08.369Z,12.16
2017-11-15T10:55:08.348Z,12.15
2017-11-15T10:56:07.819Z,12.12
2017-11-15T10:57:08.331Z,11.95
2017-11-15T10:58:08.051Z,11.91
2017-11-15T10:59:07.758Z,11.87
2017-11-15T11:00:07.989Z,11.81
2017-11-15T11:01:08.240Z,11.72
2017-11-15T11:02:08.229Z,11.68
2017-11-15T11:03:08.178Z,11.72
2017-11-15T11:04:08.195Z,11.68
2017-11-15T11:05:07.885Z,11.75
2017-11-15T11:06:08.129Z,11.78
2017-11-15T11:07:07.601Z,11.95
2017-11-15T11:08:07.819Z,11.91
2017-11-15T11:09:08.069Z,11.95
2017-11-15T11:10:07.790Z,11.89
2017-11-15T11:11:07.768Z,11.95
2017-11-15T11:12:08.000Z,11.86
2017-11-15T11:13:07.988Z,12.02
2017-11-15T11:14:07.440Z,11.89
2017-11-15T11:15:07.467Z,11.9
2017-11-15T11:16:07.657Z,11.81
2017-11-15T11:17:07.889Z,11.81
2017-11-15T11:18:07.617Z,11.83
2017-11-15T11:19:07.588Z,11.79
2017-11-15T11:20:07.831Z,11.87
2017-11-15T11:21:07.538Z,11.87
2017-11-15T11:22:07.799Z,11.75
2017-11-15T11:23:07.780Z,11.79
2017-11-15T11:24:07.749Z,11.83
2017-11-15T11:25:07.734Z,11.84
2017-11-15T11:26:07.718Z,11.84
2017-11-15T11:27:07.701Z,11.94
2017-11-15T11:28:07.395Z,11.97
2017-11-15T11:29:07.418Z,11.87
2017-11-15T11:30:07.373Z,11.98
2017-11-15T11:31:07.081Z,12.03
2017-11-15T11:32:07.580Z,12.15
2017-11-15T11:33:07.380Z,12.1
2017-11-15T11:34:07.026Z,12.05
2017-11-15T11:35:07.263Z,11.97
2017-11-15T11:36:07.502Z,11.89
2017-11-15T11:37:07.492Z,11.98
2017-11-15T11:38:07.195Z,11.84
2017-11-15T11:39:06.962Z,11.84
2017-11-15T11:40:06.898Z,11.78
2017-11-15T11:41:07.139Z,11.72
2017-11-15T11:42:07.451Z,11.53
2017-11-15T11:43:07.079Z,11.6
2017-11-15T11:44:07.071Z,11.54
2017-11-15T11:45:07.072Z,11.72
2017-11-15T11:46:07.038Z,11.71
2017-11-15T11:47:07.295Z,11.69
2017-11-15T11:48:07.317Z,11.71
2017-11-15T11:49:07.237Z,11.73
2017-11-15T11:50:06.696Z,11.79
2017-11-15T11:51:07.179Z,11.83
2017-11-15T11:52:07.187Z,11.79
2017-11-15T11:53:07.171Z,11.87
2017-11-15T11:54:07.120Z,11.84
2017-11-15T11:55:07.113Z,11.79
2017-11-15T11:56:07.132Z,11.81
2017-11-15T11:57:07.071Z,11.72
2017-11-15T11:58:06.770Z,11.86
2017-11-15T11:59:07.071Z,11.83
2017-11-15T12:00:07.007Z,11.84
2017-11-15T12:01:06.986Z,11.79
2017-11-15T12:02:06.686Z,11.84
2017-11-15T12:03:06.930Z,11.89
2017-11-15T12:04:06.644Z,11.91
2017-11-15T12:05:06.377Z,11.95
2017-11-15T12:06:06.598Z,11.95
2017-11-15T12:07:06.828Z,11.95
2017-11-15T12:08:06.890Z,11.83
2017-11-15T12:09:06.807Z,11.9
2017-11-15T12:10:06.889Z,11.79
2017-11-15T12:11:06.503Z,11.95
2017-11-15T12:12:06.225Z,11.97
2017-11-15T12:13:06.467Z,11.86
2017-11-15T12:14:06.735Z,11.83
2017-11-15T12:15:06.420Z,11.94
2017-11-15T12:16:06.701Z,12.02
2017-11-15T12:17:06.639Z,12.02
2017-11-15T12:18:06.098Z,11.99
2017-11-15T12:19:06.588Z,12.1
2017-11-15T12:20:06.580Z,12.12
2017-11-15T12:21:06.583Z,12.21
2017-11-15T12:22:06.554Z,12.34
2017-11-15T12:23:06.511Z,12.34
2017-11-15T12:24:06.482Z,12.28
2017-11-15T12:25:06.223Z,12.17
2017-11-15T12:26:06.458Z,12.2
2017-11-15T12:27:06.419Z,12.12
2017-11-15T12:28:05.886Z,12.02
2017-11-15T12:29:06.131Z,11.94
2017-11-15T12:30:05.847Z,11.89
2017-11-15T12:31:06.089Z,11.91
2017-11-15T12:32:06.072Z,11.91
2017-11-15T12:33:06.052Z,11.97
2017-11-15T12:34:06.330Z,12.05
2017-11-15T12:35:06.246Z,12.07
2017-11-15T12:36:05.987Z,11.9
2017-11-15T12:37:05.958Z,11.87
2017-11-15T12:38:06.290Z,11.9
2017-11-15T12:39:05.664Z,11.97
2017-11-15T12:40:06.250Z,12.02
2017-11-15T12:41:06.126Z,11.95
2017-11-15T12:42:06.158Z,11.9
2017-11-15T12:43:05.576Z,12.06
2017-11-15T12:44:05.798Z,12.09
2017-11-15T12:45:05.801Z,12.12
2017-11-15T12:46:05.821Z,12.09
2017-11-15T12:47:06.003Z,12.12
2017-11-15T12:48:05.767Z,12.21
2017-11-15T12:49:05.758Z,12.24
2017-11-15T12:50:05.735Z,12.07
2017-11-15T12:51:05.984Z,11.97
2017-11-15T12:52:05.956Z,11.97
2017-11-15T12:53:05.937Z,11.79
2017-11-15T12:54:05.960Z,11.81
2017-11-15T12:55:05.585Z,11.81
2017-11-15T12:56:05.621Z,11.91
2017-11-15T12:57:05.881Z,11.87
2017-11-15T12:58:05.796Z,11.91
2017-11-15T12:59:05.494Z,11.9
2017-11-15T13:00:05.788Z,11.97
2017-11-15T13:01:05.734Z,11.99
2017-11-15T13:02:05.720Z,12.03
2017-11-15T13:03:05.791Z,11.99
2017-11-15T13:04:05.448Z,11.95